createdAt,value
2023-02-06T00:01:15.985Z,11.02
2023-02-06T00:03:45.377Z,13.32
2023-02-06T00:06:14.523Z,12.77
2023-02-06T00:08:51.953Z,12.07
2023-02-06T00:11:21.612Z,11.15
2023-02-06T00:13:51.770Z,9.48
2023-02-06T00:16:22.536Z,10.27
2023-02-06T00:18:52.346Z,7.85
2023-02-06T00:21:30.454Z,11.63
2023-02-06T00:24:03.138Z,8.93
2023-02-06T00:26:33.028Z,12.82
2023-02-06T00:29:02.165Z,10.82
2023-02-06T00:31:31.562Z,11.00
2023-02-06T00:34:01.112Z,10.55
2023-02-06T00:36:30.610Z,11.13
2023-02-06T00:39:02.669Z,10.82
2023-02-06T00:41:31.947Z,11.30
2023-02-06T00:44:01.151Z,9.48
2023-02-06T00:46:32.304Z,8.82
2023-02-06T00:51:31.486Z,14.85
2023-02-06T00:54:02.790Z,13.27
2023-02-06T00:56:36.998Z,11.88
2023-02-06T00:59:06.169Z,11.45
2023-02-06T01:01:35.693Z,11.73
2023-02-06T01:04:04.945Z,8.70
2023-02-06T01:09:11.365Z,10.93
2023-02-06T01:11:47.836Z,12.30
2023-02-06T01:14:17.395Z,9.52
2023-02-06T01:16:46.733Z,9.80
2023-02-06T01:19:15.949Z,11.93
2023-02-06T01:21:45.222Z,12.32
2023-02-06T01:24:16.398Z,8.75
2023-02-06T01:26:50.782Z,11.70
2023-02-06T01:29:20.227Z,10.05
2023-02-06T01:31:54.601Z,11.10
2023-02-06T01:34:23.784Z,10.75
2023-02-06T01:36:52.962Z,11.30
2023-02-06T01:39:29.123Z,9.73
2023-02-06T01:41:59.781Z,12.13
2023-02-06T01:44:40.251Z,12.52
2023-02-06T01:47:12.899Z,11.30
2023-02-06T01:49:46.442Z,13.48
2023-02-06T01:52:20.255Z,10.27
2023-02-06T01:54:57.326Z,9.65
2023-02-06T01:57:28.742Z,10.57
2023-02-06T02:00:02.853Z,13.43
2023-02-06T02:02:47.943Z,9.75
2023-02-06T02:05:19.838Z,10.52
2023-02-06T02:07:52.869Z,12.85
2023-02-06T02:10:24.164Z,11.02
2023-02-06T02:12:53.345Z,5.80
2023-02-06T02:15:26.579Z,10.60
2023-02-06T02:18:04.305Z,11.23
2023-02-06T02:21:19.000Z,8.98
2023-02-06T02:23:57.781Z,10.35
2023-02-06T02:27:01.924Z,9.60
2023-02-06T02:30:00.685Z,6.65
2023-02-06T02:33:25.477Z,7.28
2023-02-06T02:36:05.632Z,7.68
2023-02-06T02:38:43.742Z,6.88
2023-02-06T02:41:20.759Z,8.70
2023-02-06T02:44:02.760Z,8.52
2023-02-06T02:46:36.925Z,6.68
2023-02-06T02:49:15.363Z,8.35
2023-02-06T02:51:48.488Z,9.10
2023-02-06T02:54:24.042Z,9.45
2023-02-06T02:57:02.698Z,9.30
2023-02-06T02:59:42.448Z,7.63
2023-02-06T03:02:14.960Z,7.70
2023-02-06T03:04:55.480Z,7.95
2023-02-06T03:07:34.527Z,6.43
2023-02-06T03:10:20.660Z,6.03
2023-02-06T03:12:57.085Z,7.63
2023-02-06T03:15:32.958Z,9.13
2023-02-06T03:18:17.282Z,7.22
2023-02-06T03:20:49.133Z,6.63
2023-02-06T03:23:33.638Z,7.13
2023-02-06T03:26:17.398Z,8.52
2023-02-06T03:28:51.666Z,7.32
2023-02-06T03:31:26.738Z,7.22
2023-02-06T03:34:01.454Z,6.53
2023-02-06T03:39:15.174Z,7.05
2023-02-06T03:41:46.727Z,9.32
2023-02-06T03:44:20.569Z,6.30
2023-02-06T03:46:51.267Z,7.13
2023-02-06T03:49:29.842Z,7.10
2023-02-06T03:52:12.819Z,7.13
2023-02-06T03:54:52.208Z,6.57
2023-02-06T03:57:28.290Z,7.53
2023-02-06T03:59:57.521Z,8.67
2023-02-06T04:02:33.007Z,6.70
2023-02-06T04:05:07.258Z,6.25
2023-02-06T04:07:38.422Z,5.70
2023-02-06T04:10:10.305Z,4.00
2023-02-06T04:15:09.008Z,6.25
2023-02-06T04:17:58.985Z,6.95
2023-02-06T04:20:34.235Z,5.40
2023-02-06T04:23:03.408Z,5.93
2023-02-06T04:25:35.271Z,5.50
2023-02-06T04:28:05.503Z,5.63
2023-02-06T04:30:34.626Z,3.85
2023-02-06T04:33:03.795Z,6.10
2023-02-06T04:35:33.546Z,5.72
2023-02-06T04:38:02.696Z,7.00
2023-02-06T04:40:33.722Z,5.35
2023-02-06T04:43:02.912Z,5.47
2023-02-06T04:45:31.997Z,6.65
2023-02-06T04:48:01.237Z,6.72
2023-02-06T04:50:31.495Z,4.22
2023-02-06T04:53:00.661Z,6.50
2023-02-06T04:55:37.860Z,8.63
2023-02-06T04:58:07.014Z,8.10
2023-02-06T05:00:38.541Z,8.18
2023-02-06T05:05:37.349Z,8.18
2023-02-06T05:08:13.413Z,6.82
2023-02-06T05:10:44.575Z,3.70
2023-02-06T05:13:13.990Z,5.32
2023-02-06T05:15:43.099Z,6.80
2023-02-06T05:18:12.499Z,4.90
2023-02-06T05:20:42.013Z,6.15
2023-02-06T05:23:16.163Z,7.30
2023-02-06T05:25:52.365Z,3.05
2023-02-06T05:28:21.604Z,6.65
2023-02-06T05:30:51.009Z,7.65
2023-02-06T05:33:30.634Z,5.22
2023-02-06T05:36:03.785Z,6.35
2023-02-06T05:38:37.980Z,6.88
2023-02-06T05:41:09.026Z,6.43
2023-02-06T05:43:38.751Z,6.63
2023-02-06T05:46:08.082Z,5.80
2023-02-06T05:48:38.128Z,7.60
2023-02-06T05:51:12.752Z,7.38
2023-02-06T05:53:42.037Z,5.75
2023-02-06T05:56:13.394Z,3.28
2023-02-06T05:58:42.631Z,6.10
2023-02-06T06:01:12.755Z,8.13
2023-02-06T06:03:52.060Z,6.57
2023-02-06T06:06:21.356Z,5.10
2023-02-06T06:08:50.509Z,7.53
2023-02-06T06:11:21.735Z,6.72
2023-02-06T06:13:51.176Z,7.32
2023-02-06T06:16:20.444Z,6.50
2023-02-06T06:18:50.104Z,7.15
2023-02-06T06:21:19.551Z,6.65
2023-02-06T06:23:48.897Z,6.35
2023-02-06T06:28:55.090Z,5.38
2023-02-06T06:31:24.313Z,7.35
2023-02-06T06:33:53.873Z,6.32
2023-02-06T06:36:23.349Z,6.50
2023-02-06T06:38:52.648Z,8.20
2023-02-06T06:41:23.835Z,7.20
2023-02-06T06:43:53.495Z,8.95
2023-02-06T06:46:24.288Z,8.02
2023-02-06T06:48:59.003Z,9.10
2023-02-06T06:51:28.944Z,7.75
2023-02-06T06:53:58.668Z,8.20
2023-02-06T06:56:30.356Z,6.78
2023-02-06T06:58:59.601Z,8.77
2023-02-06T07:01:28.873Z,8.52
2023-02-06T07:04:04.842Z,7.75
2023-02-06T07:06:34.115Z,7.47
2023-02-06T07:09:03.174Z,7.97
2023-02-06T07:11:34.678Z,8.13
2023-02-06T07:14:04.183Z,6.93
2023-02-06T07:16:33.553Z,6.00
2023-02-06T07:19:02.855Z,7.00
2023-02-06T07:21:31.908Z,6.30
2023-02-06T07:24:01.395Z,6.78
2023-02-06T07:26:30.748Z,6.32
2023-02-06T07:29:12.113Z,6.13
2023-02-06T07:31:41.331Z,7.70
2023-02-06T07:34:10.563Z,6.85
2023-02-06T07:36:45.235Z,9.15
2023-02-06T07:39:14.605Z,7.57
2023-02-06T07:41:45.808Z,7.03
2023-02-06T07:44:17.670Z,6.30
2023-02-06T07:46:47.377Z,6.95
2023-02-06T07:49:17.034Z,7.47
2023-02-06T07:54:31.386Z,8.95
2023-02-06T07:57:00.461Z,7.85
2023-02-06T07:59:31.801Z,14.05
2023-02-06T08:02:01.666Z,8.65
2023-02-06T08:04:39.888Z,8.77
2023-02-06T08:07:14.405Z,7.95
2023-02-06T08:09:44.128Z,7.05
2023-02-06T08:12:13.338Z,9.15
2023-02-06T08:14:50.456Z,9.35
2023-02-06T08:17:20.850Z,9.30
2023-02-06T08:19:55.504Z,7.40
2023-02-06T08:22:24.757Z,8.45
2023-02-06T08:24:54.642Z,7.25
2023-02-06T08:27:31.759Z,7.78
2023-02-06T08:32:38.060Z,6.30
2023-02-06T08:35:08.027Z,7.78
2023-02-06T08:37:42.323Z,7.90
2023-02-06T08:40:13.129Z,7.35
2023-02-06T08:42:42.300Z,9.07
2023-02-06T08:45:13.737Z,7.10
2023-02-06T08:47:47.950Z,8.25
2023-02-06T08:52:55.987Z,6.55
2023-02-06T08:55:25.477Z,7.22
2023-02-06T08:57:54.967Z,6.90
2023-02-06T09:00:26.828Z,7.50
2023-02-06T09:05:31.942Z,8.25
2023-02-06T09:08:01.082Z,8.73
2023-02-06T09:10:30.414Z,8.20
2023-02-06T09:12:59.635Z,7.15
2023-02-06T09:15:30.770Z,7.18
2023-02-06T09:18:10.779Z,7.43
2023-02-06T09:20:40.050Z,8.55
2023-02-06T09:23:09.173Z,8.38
2023-02-06T09:25:44.177Z,9.05
2023-02-06T09:28:13.502Z,3.92
2023-02-06T09:30:44.669Z,6.97
2023-02-06T09:33:19.011Z,6.63
2023-02-06T09:35:48.153Z,7.05
2023-02-06T09:38:17.344Z,10.85
2023-02-06T09:40:46.700Z,6.68
2023-02-06T09:43:16.142Z,7.03
2023-02-06T09:45:48.355Z,8.32
2023-02-06T09:48:24.454Z,8.13
2023-02-06T09:51:00.499Z,6.47
2023-02-06T09:53:39.139Z,6.85
2023-02-06T09:56:19.249Z,10.20
2023-02-06T09:59:01.379Z,8.77
2023-02-06T10:01:40.924Z,8.52
2023-02-06T10:04:31.996Z,7.10
2023-02-06T10:07:07.676Z,7.70
2023-02-06T10:09:46.781Z,8.45
2023-02-06T10:12:21.484Z,9.30
2023-02-06T10:15:03.403Z,7.20
2023-02-06T10:17:38.850Z,7.97
2023-02-06T10:20:14.746Z,8.85
2023-02-06T10:22:51.529Z,5.22
2023-02-06T10:25:31.925Z,6.45
2023-02-06T10:28:04.367Z,8.95
2023-02-06T10:30:51.009Z,10.77
2023-02-06T10:33:30.406Z,9.90
2023-02-06T10:36:18.800Z,8.57
2023-02-06T10:39:13.982Z,10.95
2023-02-06T10:41:51.244Z,8.40
2023-02-06T10:44:26.768Z,7.50
2023-02-06T10:47:00.063Z,8.32
2023-02-06T10:49:39.783Z,7.07
2023-02-06T10:52:25.332Z,10.93
2023-02-06T10:54:58.376Z,8.30
2023-02-06T10:57:35.692Z,8.52
2023-02-06T11:00:18.204Z,7.57
2023-02-06T11:03:06.793Z,9.65
2023-02-06T11:05:52.165Z,6.22
2023-02-06T11:08:27.310Z,9.10
2023-02-06T11:10:57.033Z,7.80
2023-02-06T11:13:41.044Z,9.52
2023-02-06T11:16:22.561Z,8.00
2023-02-06T11:19:15.218Z,13.55
2023-02-06T11:21:56.030Z,7.00
2023-02-06T11:24:26.630Z,7.82
2023-02-06T11:26:58.933Z,9.65
2023-02-06T11:32:26.335Z,9.95
2023-02-06T11:35:04.028Z,10.05
2023-02-06T11:37:37.569Z,10.10
2023-02-06T11:40:26.669Z,12.00
2023-02-06T11:43:17.733Z,12.02
2023-02-06T11:45:48.777Z,10.10
2023-02-06T11:48:40.505Z,9.88
2023-02-06T11:51:11.409Z,12.57
2023-02-06T11:54:04.383Z,10.35
2023-02-06T11:56:34.617Z,11.80
2023-02-06T11:59:07.680Z,11.05
2023-02-06T12:01:44.778Z,9.73
2023-02-06T12:04:23.346Z,8.82
2023-02-06T12:06:56.845Z,7.85
2023-02-06T12:09:28.768Z,10.52
2023-02-06T12:14:34.834Z,8.15
2023-02-06T12:17:06.780Z,8.48
2023-02-06T12:19:47.205Z,8.18
2023-02-06T12:22:21.360Z,9.45
2023-02-06T12:24:55.566Z,8.75
2023-02-06T12:27:29.585Z,9.43
2023-02-06T12:30:04.170Z,11.60
2023-02-06T12:32:38.852Z,8.75
2023-02-06T12:35:21.229Z,10.27
2023-02-06T12:37:55.778Z,10.10
2023-02-06T12:40:40.852Z,12.18
2023-02-06T12:43:12.313Z,8.60
2023-02-06T12:45:49.550Z,12.45
2023-02-06T12:53:46.694Z,14.38
2023-02-06T12:59:19.637Z,12.27
2023-02-06T13:01:58.388Z,15.82
2023-02-06T13:04:29.804Z,13.10
2023-02-06T13:07:04.578Z,12.48
2023-02-06T13:09:44.195Z,12.18
2023-02-06T13:12:16.966Z,10.88
2023-02-06T13:14:56.391Z,11.75
2023-02-06T13:17:27.482Z,11.57
2023-02-06T13:20:11.329Z,8.47
2023-02-06T13:22:50.528Z,13.80
2023-02-06T13:26:00.259Z,10.50
2023-02-06T13:28:58.666Z,10.57
2023-02-06T13:31:35.649Z,13.60
2023-02-06T13:34:16.453Z,14.70
2023-02-06T13:36:54.997Z,11.85
2023-02-06T13:39:34.824Z,12.52
2023-02-06T13:42:34.937Z,11.90
2023-02-06T13:45:08.616Z,12.27
2023-02-06T13:48:10.858Z,15.07
2023-02-06T13:53:34.007Z,12.65
2023-02-06T13:56:16.041Z,11.07
2023-02-06T13:59:00.476Z,9.45
2023-02-06T14:01:33.073Z,13.93
2023-02-06T14:04:03.138Z,14.75
2023-02-06T14:06:59.724Z,10.15
2023-02-06T14:09:58.901Z,10.55
2023-02-06T14:12:44.084Z,10.75
2023-02-06T14:15:24.188Z,10.20
2023-02-06T14:18:12.056Z,14.90
2023-02-06T14:23:37.641Z,11.10
2023-02-06T14:26:22.231Z,12.48
2023-02-06T14:29:02.658Z,11.38
2023-02-06T14:34:43.451Z,10.82
2023-02-06T14:37:37.285Z,12.82
2023-02-06T14:40:15.482Z,12.38
2023-02-06T14:42:47.804Z,9.95
2023-02-06T14:45:27.630Z,10.82
2023-02-06T14:47:59.468Z,10.07
2023-02-06T14:53:10.162Z,10.75
2023-02-06T14:55:41.189Z,9.85
2023-02-06T14:58:21.646Z,10.50
2023-02-06T15:00:51.019Z,10.63
2023-02-06T15:03:23.398Z,10.82
2023-02-06T15:08:50.529Z,10.40
2023-02-06T15:11:22.842Z,14.45
2023-02-06T15:13:53.945Z,10.57
2023-02-06T15:16:30.406Z,12.38
2023-02-06T15:19:13.774Z,12.73
2023-02-06T15:21:45.724Z,13.85
2023-02-06T15:24:34.743Z,12.65
2023-02-06T15:27:12.734Z,15.70
2023-02-06T15:29:42.203Z,11.38
2023-02-06T15:35:06.028Z,12.10
2023-02-06T15:37:37.909Z,13.32
2023-02-06T15:40:19.204Z,12.82
2023-02-06T15:42:50.263Z,13.25
2023-02-06T15:45:28.264Z,12.18
2023-02-06T15:47:59.037Z,14.70
2023-02-06T15:50:30.084Z,15.02
2023-02-06T15:53:01.305Z,14.40
2023-02-06T15:55:38.711Z,14.02
2023-02-06T15:58:07.797Z,14.07
2023-02-06T16:00:39.399Z,18.45
2023-02-06T16:03:18.410Z,19.55
2023-02-06T16:05:47.787Z,19.58
2023-02-06T16:08:22.713Z,20.42
2023-02-06T16:11:03.537Z,19.25
2023-02-06T16:13:39.272Z,22.55
2023-02-06T16:16:21.893Z,23.65
2023-02-06T16:18:53.246Z,22.85
2023-02-06T16:21:38.684Z,24.25
2023-02-06T16:24:17.285Z,26.13
2023-02-06T16:26:49.115Z,21.58
2023-02-06T16:34:42.434Z,20.10
2023-02-06T16:37:20.430Z,20.13
2023-02-06T16:39:53.056Z,23.80
2023-02-06T16:42:36.621Z,19.83
2023-02-06T16:45:16.478Z,20.20
2023-02-06T16:47:45.796Z,21.02
2023-02-06T16:50:15.143Z,21.15
2023-02-06T16:52:56.207Z,20.85
2023-02-06T16:55:28.806Z,19.85
2023-02-06T16:58:01.738Z,20.02
2023-02-06T17:00:33.530Z,19.25
2023-02-06T17:05:32.862Z,19.33
2023-02-06T17:08:04.096Z,19.35
2023-02-06T17:10:35.804Z,22.65
2023-02-06T17:13:16.709Z,18.52
2023-02-06T17:15:47.478Z,18.48
2023-02-06T17:18:18.896Z,19.58
2023-02-06T17:20:51.236Z,21.75
2023-02-06T17:23:26.575Z,21.58
2023-02-06T17:25:57.818Z,17.27
2023-02-06T17:28:27.113Z,18.60
2023-02-06T17:30:56.479Z,16.63
2023-02-06T17:33:25.931Z,18.10
2023-02-06T17:35:55.747Z,17.27
2023-02-06T17:38:25.172Z,15.98
2023-02-06T17:40:55.361Z,16.73
2023-02-06T17:43:26.595Z,16.48
2023-02-06T17:45:55.854Z,13.98
2023-02-06T17:48:25.068Z,15.93
2023-02-06T17:53:40.954Z,11.30
2023-02-06T17:56:13.184Z,14.55
2023-02-06T17:58:50.740Z,13.65
2023-02-06T18:01:26.059Z,13.40
2023-02-06T18:04:06.889Z,14.65
2023-02-06T18:06:36.471Z,15.75
2023-02-06T18:09:06.441Z,14.18
2023-02-06T18:11:36.189Z,14.40
2023-02-06T18:14:12.819Z,13.63
2023-02-06T18:16:42.481Z,14.77
2023-02-06T18:19:14.024Z,13.55
2023-02-06T18:21:43.309Z,16.85
2023-02-06T18:24:12.579Z,14.73
2023-02-06T18:26:43.106Z,15.75
2023-02-06T18:29:14.526Z,13.77
2023-02-06T18:31:48.974Z,14.30
2023-02-06T18:34:20.412Z,14.00
2023-02-06T18:36:49.922Z,13.85
2023-02-06T18:39:24.052Z,12.68
2023-02-06T18:42:06.318Z,11.55
2023-02-06T18:44:41.579Z,9.77
2023-02-06T18:47:19.449Z,11.70
2023-02-06T18:52:24.815Z,10.43
2023-02-06T18:54:54.125Z,10.95
2023-02-06T18:57:23.448Z,10.93
2023-02-06T18:59:55.017Z,12.65
2023-02-06T19:02:29.892Z,11.50
2023-02-06T19:04:59.814Z,9.40
2023-02-06T19:07:29.417Z,11.90
2023-02-06T19:09:59.868Z,11.80
2023-02-06T19:12:30.382Z,13.52
2023-02-06T19:15:01.941Z,10.52
2023-02-06T19:17:32.675Z,9.90
2023-02-06T19:20:02.078Z,14.52
2023-02-06T19:22:39.859Z,10.20
2023-02-06T19:25:14.238Z,11.48
2023-02-06T19:27:50.025Z,11.27
2023-02-06T19:30:21.663Z,11.18
2023-02-06T19:32:51.450Z,10.15
2023-02-06T19:35:20.713Z,9.90
2023-02-06T19:37:51.388Z,11.60
2023-02-06T19:40:21.092Z,9.10
2023-02-06T19:42:50.315Z,8.65
2023-02-06T19:45:21.486Z,10.70
2023-02-06T19:47:50.687Z,10.35
2023-02-06T19:50:19.991Z,9.40
2023-02-06T19:52:49.243Z,11.55
2023-02-06T19:55:18.865Z,9.48
2023-02-06T19:57:48.154Z,8.88
2023-02-06T20:05:41.784Z,9.52
2023-02-06T20:08:11.009Z,9.38
2023-02-06T20:10:40.266Z,10.32
2023-02-06T20:13:15.752Z,10.38
2023-02-06T20:15:45.224Z,12.55
2023-02-06T20:18:21.367Z,10.25
2023-02-06T20:20:50.644Z,9.05
2023-02-06T20:23:19.781Z,11.48
2023-02-06T20:25:48.986Z,10.30
2023-02-06T20:28:18.516Z,10.40
2023-02-06T20:30:47.912Z,10.27
2023-02-06T20:33:23.983Z,10.40
2023-02-06T20:35:54.083Z,9.18
2023-02-06T20:38:23.222Z,10.90
2023-02-06T20:40:53.657Z,9.82
2023-02-06T20:43:28.805Z,8.55
2023-02-06T20:45:58.146Z,9.65
2023-02-06T20:48:29.445Z,9.00
2023-02-06T20:51:07.112Z,10.02
2023-02-06T20:53:36.225Z,9.10
2023-02-06T20:56:18.414Z,10.38
2023-02-06T20:58:48.994Z,10.85
2023-02-06T21:01:23.034Z,10.80
2023-02-06T21:03:57.066Z,9.35
2023-02-06T21:06:33.796Z,9.27
2023-02-06T21:09:03.455Z,10.50
2023-02-06T21:11:40.154Z,11.73
2023-02-06T21:14:10.135Z,12.50
2023-02-06T21:16:40.115Z,13.93
2023-02-06T21:19:18.542Z,10.23
2023-02-06T21:21:48.954Z,12.80
2023-02-06T21:24:19.107Z,9.43
2023-02-06T21:26:53.316Z,13.77
2023-02-06T21:29:22.794Z,9.40
2023-02-06T21:32:00.590Z,10.88
2023-02-06T21:34:54.175Z,9.60
2023-02-06T21:37:23.282Z,11.25
2023-02-06T21:39:52.797Z,13.40
2023-02-06T21:42:25.742Z,11.68
2023-02-06T21:45:03.559Z,10.82
2023-02-06T21:47:36.718Z,12.13
2023-02-06T21:50:08.968Z,11.05
2023-02-06T21:52:38.993Z,10.77
2023-02-06T21:55:13.086Z,9.48
2023-02-06T21:57:42.400Z,10.30
2023-02-06T22:00:12.983Z,10.15
2023-02-06T22:02:42.131Z,10.57
2023-02-06T22:05:13.290Z,10.07
2023-02-06T22:07:42.633Z,12.43
2023-02-06T22:10:12.636Z,10.93
2023-02-06T22:12:41.820Z,11.27
2023-02-06T22:15:11.989Z,10.52
2023-02-06T22:17:41.313Z,10.57
2023-02-06T22:20:14.291Z,10.35
2023-02-06T22:22:45.979Z,12.75
2023-02-06T22:25:20.206Z,10.40
2023-02-06T22:27:49.503Z,14.60
2023-02-06T22:30:19.039Z,12.10
2023-02-06T22:32:48.288Z,13.10
2023-02-06T22:35:19.581Z,12.00
2023-02-06T22:37:49.267Z,8.63
2023-02-06T22:40:18.920Z,11.45
2023-02-06T22:42:48.346Z,11.25
2023-02-06T22:45:17.462Z,11.40
2023-02-06T22:47:46.670Z,10.55
2023-02-06T22:50:16.268Z,11.85
2023-02-06T22:53:05.583Z,10.50
2023-02-06T22:55:53.365Z,11.57
2023-02-06T22:58:28.827Z,8.70
2023-02-06T23:01:04.116Z,10.18
2023-02-06T23:03:33.488Z,10.25
2023-02-06T23:06:03.667Z,8.75
2023-02-06T23:08:35.653Z,9.07
2023-02-06T23:11:05.200Z,8.93
2023-02-06T23:13:34.688Z,8.82
2023-02-06T23:16:04.283Z,10.00
2023-02-06T23:18:33.636Z,11.30
2023-02-06T23:21:10.699Z,10.70
2023-02-06T23:28:52.935Z,11.13
2023-02-06T23:31:22.122Z,12.57
2023-02-06T23:33:56.888Z,13.38
2023-02-06T23:36:32.433Z,13.27
2023-02-06T23:39:06.935Z,14.07
2023-02-06T23:41:36.300Z,18.20
2023-02-06T23:44:08.594Z,13.98
2023-02-06T23:46:49.388Z,15.00
2023-02-06T23:49:19.795Z,14.98
2023-02-06T23:51:48.869Z,13.80
2023-02-06T23:54:22.154Z,15.25
2023-02-06T23:56:51.359Z,14.85
2023-02-06T23:59:21.423Z,13.75
